createdAt,value
2018-12-21T00:02:23.067Z,2.20
2018-12-21T00:04:49.814Z,2.47
2018-12-21T00:07:16.629Z,2.37
2018-12-21T00:09:43.353Z,2.20
2018-12-21T00:12:10.079Z,2.20
2018-12-21T00:14:36.762Z,2.30
2018-12-21T00:17:03.493Z,2.30
2018-12-21T00:19:30.262Z,2.40
2018-12-21T00:21:56.871Z,1.97
2018-12-21T00:24:23.557Z,1.93
2018-12-21T00:26:50.393Z,1.90
2018-12-21T00:29:17.249Z,2.20
2018-12-21T00:31:49.681Z,1.70
2018-12-21T00:34:22.062Z,1.87
2018-12-21T00:36:54.279Z,2.17
2018-12-21T00:39:26.734Z,1.97
2018-12-21T00:41:52.866Z,2.40
2018-12-21T00:44:27.169Z,1.93
2018-12-21T00:46:57.544Z,2.00
2018-12-21T00:49:26.352Z,2.10
2018-12-21T00:51:53.123Z,1.93
2018-12-21T00:54:19.887Z,1.73
2018-12-21T00:56:46.630Z,1.80
2018-12-21T00:59:14.364Z,2.20
2018-12-21T01:01:41.090Z,2.13
2018-12-21T01:04:07.969Z,1.90
2018-12-21T01:06:34.746Z,2.10
2018-12-21T01:09:01.512Z,2.10
2018-12-21T01:11:28.295Z,1.63
2018-12-21T01:13:55.092Z,1.80
2018-12-21T01:16:21.809Z,2.07
2018-12-21T01:18:48.554Z,2.30
2018-12-21T01:21:15.536Z,1.60
2018-12-21T01:23:42.317Z,1.20
2018-12-21T01:26:09.114Z,2.00
2018-12-21T01:28:35.846Z,1.83
2018-12-21T01:31:02.718Z,1.53
2018-12-21T01:33:29.458Z,1.50
2018-12-21T01:35:56.247Z,1.90
2018-12-21T01:38:23.054Z,1.60
2018-12-21T01:40:49.742Z,1.77
2018-12-21T01:43:16.493Z,1.23
2018-12-21T01:45:43.266Z,1.80
2018-12-21T01:48:10.090Z,1.43
2018-12-21T01:50:36.866Z,2.03
2018-12-21T01:53:03.578Z,1.70
2018-12-21T01:55:30.490Z,1.87
2018-12-21T01:57:57.234Z,1.90
2018-12-21T02:00:23.974Z,2.00
2018-12-21T02:02:50.623Z,1.80
2018-12-21T02:05:17.410Z,1.50
2018-12-21T02:07:44.060Z,1.57
2018-12-21T02:10:10.734Z,2.23
2018-12-21T02:12:37.443Z,1.40
2018-12-21T02:15:04.144Z,1.50
2018-12-21T02:17:30.914Z,1.73
2018-12-21T02:19:57.714Z,1.43
2018-12-21T02:22:24.398Z,1.70
2018-12-21T02:24:51.168Z,2.07
2018-12-21T02:27:17.843Z,2.30
2018-12-21T02:29:44.831Z,2.17
2018-12-21T02:32:11.710Z,1.90
2018-12-21T02:34:38.544Z,1.90
2018-12-21T02:37:05.387Z,2.10
2018-12-21T02:39:32.945Z,1.83
2018-12-21T02:41:59.790Z,2.50
2018-12-21T02:44:26.801Z,2.13
2018-12-21T02:46:53.653Z,2.60
2018-12-21T02:49:20.831Z,1.77
2018-12-21T02:51:48.513Z,2.30
2018-12-21T02:54:15.356Z,2.53
2018-12-21T02:56:42.291Z,2.00
2018-12-21T02:59:09.020Z,2.10
2018-12-21T03:01:35.764Z,1.97
2018-12-21T03:04:02.430Z,2.57
2018-12-21T03:06:29.260Z,2.23
2018-12-21T03:08:58.353Z,2.20
2018-12-21T03:11:25.815Z,2.33
2018-12-21T03:13:52.546Z,2.37
2018-12-21T03:16:20.207Z,2.30
2018-12-21T03:18:49.004Z,2.40
2018-12-21T03:21:15.734Z,2.47
2018-12-21T03:23:42.590Z,2.53
2018-12-21T03:26:09.999Z,2.30
2018-12-21T03:28:37.227Z,1.93
2018-12-21T03:31:03.937Z,2.33
2018-12-21T03:33:31.093Z,1.90
2018-12-21T03:35:58.556Z,2.50
2018-12-21T03:38:25.558Z,1.93
2018-12-21T03:40:52.302Z,1.90
2018-12-21T03:43:19.778Z,2.07
2018-12-21T03:45:46.545Z,2.27
2018-12-21T03:48:13.483Z,2.23
2018-12-21T03:50:40.327Z,1.70
2018-12-21T03:53:07.046Z,2.10
2018-12-21T03:55:33.703Z,1.80
2018-12-21T03:58:00.660Z,1.90
2018-12-21T04:00:28.115Z,1.93
2018-12-21T04:02:54.909Z,2.00
2018-12-21T04:05:21.659Z,1.60
2018-12-21T04:07:48.335Z,1.80
2018-12-21T04:10:15.503Z,1.70
2018-12-21T04:12:42.292Z,1.77
2018-12-21T04:15:09.045Z,2.10
2018-12-21T04:17:35.711Z,1.73
2018-12-21T04:20:02.391Z,1.60
2018-12-21T04:22:33.990Z,1.80
2018-12-21T04:24:58.187Z,1.50
2018-12-21T04:27:24.903Z,2.00
2018-12-21T04:29:51.915Z,1.90
2018-12-21T04:32:19.541Z,1.83
2018-12-21T04:34:46.386Z,1.47
2018-12-21T04:37:13.397Z,1.77
2018-12-21T04:39:40.318Z,1.57
2018-12-21T04:42:07.059Z,1.50
2018-12-21T04:44:33.750Z,1.60
2018-12-21T04:47:00.427Z,1.60
2018-12-21T04:49:27.129Z,1.60
2018-12-21T04:51:54.220Z,1.80
2018-12-21T04:54:21.602Z,1.70
2018-12-21T04:56:49.010Z,1.37
2018-12-21T04:59:16.053Z,1.63
2018-12-21T05:01:43.490Z,1.60
2018-12-21T05:04:19.536Z,1.47
2018-12-21T05:06:39.924Z,1.57
2018-12-21T05:09:07.302Z,1.40
2018-12-21T05:11:34.073Z,1.30
2018-12-21T05:14:00.785Z,1.50
2018-12-21T05:16:27.558Z,1.50
2018-12-21T05:18:54.858Z,1.60
2018-12-21T05:21:22.205Z,1.30
2018-12-21T05:23:49.567Z,1.10
2018-12-21T05:26:16.277Z,1.20
2018-12-21T05:28:43.174Z,1.20
2018-12-21T05:31:09.915Z,1.30
2018-12-21T05:33:37.100Z,1.10
2018-12-21T05:36:03.794Z,1.13
2018-12-21T05:38:31.238Z,1.30
2018-12-21T05:40:58.064Z,1.47
2018-12-21T05:43:24.847Z,1.33
2018-12-21T05:45:51.562Z,1.30
2018-12-21T05:48:19.390Z,1.20
2018-12-21T05:50:46.113Z,0.97
2018-12-21T05:53:13.686Z,1.13
2018-12-21T05:55:40.593Z,1.17
2018-12-21T05:58:07.991Z,1.37
2018-12-21T06:00:34.782Z,1.03
2018-12-21T06:08:34.196Z,1.10
2018-12-21T06:11:01.419Z,1.00
2018-12-21T06:13:28.102Z,1.30
2018-12-21T06:15:54.907Z,0.70
2018-12-21T06:18:21.631Z,1.00
2018-12-21T06:20:48.493Z,0.90
2018-12-21T06:23:15.327Z,0.90
2018-12-21T06:25:42.101Z,0.70
2018-12-21T06:28:09.029Z,1.23
2018-12-21T06:30:35.847Z,0.50
2018-12-21T06:33:02.714Z,0.90
2018-12-21T06:35:30.096Z,0.73
2018-12-21T06:37:57.225Z,0.80
2018-12-21T06:40:23.939Z,0.63
2018-12-21T06:42:50.902Z,1.03
2018-12-21T06:45:18.187Z,0.77
2018-12-21T06:47:45.591Z,0.60
2018-12-21T06:50:13.477Z,0.50
2018-12-21T06:52:40.247Z,0.60
2018-12-21T06:55:07.081Z,0.70
2018-12-21T06:57:35.147Z,0.83
2018-12-21T07:00:01.931Z,0.60
2018-12-21T07:02:28.733Z,0.60
2018-12-21T07:04:55.577Z,0.50
2018-12-21T07:07:22.753Z,0.70
2018-12-21T07:09:50.391Z,0.50
2018-12-21T07:12:17.123Z,0.30
2018-12-21T07:14:43.896Z,0.70
2018-12-21T07:17:11.013Z,0.50
2018-12-21T07:19:37.696Z,0.70
2018-12-21T07:22:04.459Z,0.70
2018-12-21T07:24:31.264Z,0.60
2018-12-21T07:26:57.982Z,0.70
2018-12-21T07:29:24.738Z,0.60
2018-12-21T07:31:51.576Z,0.60
2018-12-21T07:34:18.418Z,0.50
2018-12-21T07:36:45.962Z,0.77
2018-12-21T07:39:13.137Z,0.40
2018-12-21T07:41:40.123Z,0.80
2018-12-21T07:44:06.931Z,0.50
2018-12-21T07:46:33.744Z,0.67
2018-12-21T07:49:00.766Z,0.80
2018-12-21T07:51:27.688Z,0.63
2018-12-21T07:53:54.896Z,0.60
2018-12-21T07:56:22.055Z,0.60
2018-12-21T07:58:56.918Z,0.80
2018-12-21T08:01:18.923Z,0.60
2018-12-21T08:03:45.827Z,0.60
2018-12-21T08:06:13.131Z,0.70
2018-12-21T08:08:39.969Z,0.80
2018-12-21T08:11:06.874Z,0.70
2018-12-21T08:13:33.763Z,0.60
2018-12-21T08:16:00.637Z,0.57
2018-12-21T08:18:27.522Z,0.97
2018-12-21T08:20:54.454Z,0.70
2018-12-21T08:23:21.496Z,0.80
2018-12-21T08:25:48.486Z,0.63
2018-12-21T08:28:15.278Z,0.80
2018-12-21T08:30:43.076Z,0.60
2018-12-21T08:33:09.815Z,0.80
2018-12-21T08:35:37.511Z,0.90
2018-12-21T08:38:05.929Z,0.60
2018-12-21T08:40:33.416Z,0.77
2018-12-21T08:43:00.266Z,0.73
2018-12-21T08:45:27.428Z,0.87
2018-12-21T08:47:54.263Z,0.70
2018-12-21T08:50:21.916Z,0.90
2018-12-21T08:52:48.919Z,0.93
2018-12-21T08:55:16.472Z,0.90
2018-12-21T08:57:45.672Z,0.60
2018-12-21T09:00:12.603Z,0.80
2018-12-21T09:02:39.741Z,0.60
2018-12-21T09:05:07.648Z,0.80
2018-12-21T09:07:34.674Z,0.57
2018-12-21T09:10:02.341Z,0.53
2018-12-21T09:12:29.285Z,0.57
2018-12-21T09:14:56.129Z,0.50
2018-12-21T09:17:23.138Z,0.50
2018-12-21T09:19:50.017Z,0.73
2018-12-21T09:22:17.313Z,0.70
2018-12-21T09:24:44.031Z,0.40
2018-12-21T09:27:10.861Z,0.63
2018-12-21T09:29:37.703Z,0.50
2018-12-21T09:32:05.402Z,0.70
2018-12-21T09:34:32.489Z,0.40
2018-12-21T09:36:59.771Z,0.70
2018-12-21T09:39:26.581Z,0.80
2018-12-21T09:41:53.661Z,0.50
2018-12-21T09:44:20.995Z,0.57
2018-12-21T09:46:48.469Z,0.53
2018-12-21T09:49:15.251Z,0.77
2018-12-21T09:51:42.172Z,0.57
2018-12-21T09:54:09.986Z,0.60
2018-12-21T09:56:37.228Z,0.67
2018-12-21T09:59:04.132Z,0.97
2018-12-21T10:01:30.872Z,0.47
2018-12-21T10:03:58.416Z,0.63
2018-12-21T10:06:25.120Z,0.60
2018-12-21T10:08:52.121Z,0.40
2018-12-21T10:11:18.864Z,0.60
2018-12-21T10:13:46.191Z,0.50
2018-12-21T10:16:12.872Z,0.60
2018-12-21T10:18:40.666Z,0.60
2018-12-21T10:21:07.466Z,0.60
2018-12-21T10:23:34.329Z,0.50
2018-12-21T10:26:01.135Z,0.57
2018-12-21T10:28:27.906Z,0.50
2018-12-21T10:30:54.725Z,0.40
2018-12-21T10:33:21.630Z,0.53
2018-12-21T10:35:48.360Z,0.53
2018-12-21T10:38:15.073Z,0.57
2018-12-21T10:40:41.818Z,0.60
2018-12-21T10:43:08.681Z,0.50
2018-12-21T10:45:41.583Z,0.40
2018-12-21T10:48:04.330Z,0.70
2018-12-21T10:50:31.123Z,0.57
2018-12-21T10:52:57.897Z,0.50
2018-12-21T10:55:24.747Z,0.63
2018-12-21T10:57:51.569Z,0.43
2018-12-21T11:00:18.377Z,0.50
2018-12-21T11:02:50.142Z,0.67
2018-12-21T11:05:16.974Z,0.70
2018-12-21T11:07:43.726Z,0.40
2018-12-21T11:10:10.570Z,0.63
2018-12-21T11:12:37.335Z,0.47
2018-12-21T11:15:04.044Z,0.63
2018-12-21T11:17:30.852Z,0.80
2018-12-21T11:19:58.476Z,0.87
2018-12-21T11:22:25.332Z,0.67
2018-12-21T11:24:52.126Z,0.70
2018-12-21T11:27:18.869Z,0.90
2018-12-21T11:29:45.620Z,0.70
2018-12-21T11:32:12.284Z,0.53
2018-12-21T11:34:39.315Z,0.83
2018-12-21T11:37:06.281Z,0.70
2018-12-21T11:39:33.071Z,0.90
2018-12-21T11:41:59.779Z,0.90
2018-12-21T11:44:26.529Z,0.80
2018-12-21T11:46:53.838Z,0.50
2018-12-21T11:49:21.084Z,1.03
2018-12-21T11:51:47.848Z,0.50
2018-12-21T11:54:14.610Z,0.93
2018-12-21T11:56:41.307Z,0.70
2018-12-21T11:59:08.140Z,0.83
2018-12-21T12:01:34.996Z,0.53
2018-12-21T12:04:01.769Z,1.20
2018-12-21T12:06:28.592Z,0.80
2018-12-21T12:08:55.264Z,1.30
2018-12-21T12:11:22.056Z,0.80
2018-12-21T12:13:48.966Z,1.00
2018-12-21T12:16:15.700Z,1.00
2018-12-21T12:18:42.416Z,0.93
2018-12-21T12:21:09.133Z,0.80
2018-12-21T12:23:35.849Z,0.80
2018-12-21T12:26:03.319Z,1.43
2018-12-21T12:28:30.856Z,1.60
2018-12-21T12:30:57.585Z,1.37
2018-12-21T12:33:24.518Z,1.37
2018-12-21T12:35:51.296Z,1.63
2018-12-21T12:38:18.182Z,1.40
2018-12-21T12:40:44.949Z,1.53
2018-12-21T12:43:12.318Z,1.40
2018-12-21T12:45:39.233Z,1.87
2018-12-21T12:48:06.147Z,1.00
2018-12-21T12:50:32.988Z,1.50
2018-12-21T12:52:59.756Z,1.30
2018-12-21T12:55:26.527Z,1.90
2018-12-21T12:57:53.396Z,1.70
2018-12-21T13:00:20.202Z,1.87
2018-12-21T13:02:47.034Z,1.30
2018-12-21T13:05:13.995Z,1.50
2018-12-21T13:07:41.531Z,2.20
2018-12-21T13:10:08.262Z,1.20
2018-12-21T13:12:35.029Z,2.00
2018-12-21T13:15:01.849Z,1.87
2018-12-21T13:17:28.705Z,1.43
2018-12-21T13:19:55.599Z,1.70
2018-12-21T13:22:22.323Z,1.90
2018-12-21T13:24:49.027Z,1.80
2018-12-21T13:27:15.777Z,1.80
2018-12-21T13:29:42.546Z,1.83
2018-12-21T13:32:09.281Z,1.90
2018-12-21T13:34:35.967Z,1.63
2018-12-21T13:37:03.805Z,1.50
2018-12-21T13:39:30.563Z,1.87
2018-12-21T13:41:57.462Z,2.33
2018-12-21T13:44:24.205Z,1.33
2018-12-21T13:46:51.823Z,1.93
2018-12-21T13:49:18.560Z,2.13
2018-12-21T13:51:45.495Z,2.17
2018-12-21T13:54:13.420Z,1.63
2018-12-21T13:56:40.321Z,2.00
2018-12-21T13:59:07.105Z,2.43
2018-12-21T14:01:34.169Z,2.07
2018-12-21T14:04:01.141Z,2.33
2018-12-21T14:06:27.920Z,1.63
2018-12-21T14:08:54.694Z,1.80
2018-12-21T14:11:21.425Z,2.90
2018-12-21T14:13:48.423Z,2.07
2018-12-21T14:16:15.221Z,2.13
2018-12-21T14:18:41.974Z,2.40
2018-12-21T14:21:09.342Z,1.90
2018-12-21T14:23:36.374Z,2.40
2018-12-21T14:26:03.080Z,2.17
2018-12-21T14:28:29.786Z,2.47
2018-12-21T14:30:56.540Z,1.70
2018-12-21T14:33:23.352Z,2.50
2018-12-21T14:35:50.226Z,1.60
2018-12-21T14:38:17.100Z,2.80
2018-12-21T14:40:43.885Z,2.03
2018-12-21T14:43:10.678Z,2.43
2018-12-21T14:45:37.352Z,2.40
2018-12-21T14:48:04.124Z,1.83
2018-12-21T14:50:30.846Z,2.40
2018-12-21T14:52:57.545Z,2.03
2018-12-21T14:55:24.562Z,2.57
2018-12-21T14:57:51.294Z,2.23
2018-12-21T15:00:18.104Z,1.87
2018-12-21T15:02:44.930Z,1.90
2018-12-21T15:05:11.727Z,2.07
2018-12-21T15:07:38.538Z,3.20
2018-12-21T15:10:05.330Z,2.30
2018-12-21T15:12:32.196Z,2.87
2018-12-21T15:14:59.095Z,2.67
2018-12-21T15:17:26.022Z,2.60
2018-12-21T15:19:52.902Z,2.20
2018-12-21T15:22:19.721Z,2.20
2018-12-21T15:24:46.498Z,3.10
2018-12-21T15:27:13.303Z,2.20
2018-12-21T15:29:41.107Z,3.13
2018-12-21T15:32:08.146Z,2.20
2018-12-21T15:34:35.014Z,2.57
2018-12-21T15:37:01.783Z,2.80
2018-12-21T15:39:29.642Z,1.97
2018-12-21T15:41:56.319Z,1.97
2018-12-21T15:44:23.030Z,2.70
2018-12-21T15:46:49.947Z,1.90
2018-12-21T15:49:16.757Z,2.67
2018-12-21T15:51:43.477Z,2.00
2018-12-21T15:54:10.379Z,2.63
2018-12-21T15:56:37.170Z,2.40
2018-12-21T15:59:03.917Z,2.23
2018-12-21T16:01:36.805Z,3.40
2018-12-21T16:03:59.507Z,1.70
2018-12-21T16:06:26.317Z,2.80
2018-12-21T16:08:53.028Z,2.67
2018-12-21T16:11:19.803Z,2.23
2018-12-21T16:13:46.573Z,2.50
2018-12-21T16:16:13.283Z,2.20
2018-12-21T16:18:40.064Z,2.53
2018-12-21T16:21:06.830Z,2.30
2018-12-21T16:23:33.628Z,2.70
2018-12-21T16:26:03.685Z,2.20
2018-12-21T16:28:30.535Z,2.00
2018-12-21T16:30:57.159Z,2.93
2018-12-21T16:33:23.911Z,3.10
2018-12-21T16:35:50.607Z,1.97
2018-12-21T16:38:17.305Z,2.87
2018-12-21T16:40:44.022Z,2.47
2018-12-21T16:43:10.993Z,2.23
2018-12-21T16:45:37.809Z,2.40
2018-12-21T16:48:04.856Z,2.00
2018-12-21T16:50:31.566Z,2.00
2018-12-21T16:52:58.326Z,1.90
2018-12-21T16:55:25.097Z,2.07
2018-12-21T16:57:56.238Z,2.43
2018-12-21T17:00:23.916Z,1.97
2018-12-21T17:02:50.834Z,2.27
2018-12-21T17:05:17.687Z,1.77
2018-12-21T17:07:44.434Z,2.00
2018-12-21T17:10:11.160Z,2.87
2018-12-21T17:12:37.853Z,2.70
2018-12-21T17:15:04.540Z,2.03
2018-12-21T17:17:31.289Z,2.83
2018-12-21T17:19:58.015Z,2.30
2018-12-21T17:22:24.749Z,2.20
2018-12-21T17:24:51.534Z,3.17
2018-12-21T17:27:18.260Z,2.20
2018-12-21T17:29:44.942Z,2.63
2018-12-21T17:32:11.699Z,2.17
2018-12-21T17:34:38.515Z,2.63
2018-12-21T17:37:05.196Z,2.33
2018-12-21T17:39:32.016Z,2.57
2018-12-21T17:41:58.952Z,2.23
2018-12-21T17:44:25.698Z,3.63
2018-12-21T17:46:52.357Z,3.20
2018-12-21T17:49:19.262Z,2.73
2018-12-21T17:51:46.070Z,2.93
2018-12-21T17:54:12.912Z,2.77
2018-12-21T17:56:39.672Z,2.50
2018-12-21T17:59:06.381Z,2.57
2018-12-21T18:01:33.204Z,2.10
2018-12-21T18:03:59.919Z,2.30
2018-12-21T18:06:26.645Z,2.83
2018-12-21T18:08:53.508Z,2.67
2018-12-21T18:11:20.216Z,2.17
2018-12-21T18:13:46.994Z,1.93
2018-12-21T18:16:13.734Z,2.60
2018-12-21T18:18:40.408Z,2.37
2018-12-21T18:21:07.112Z,2.60
2018-12-21T18:23:33.794Z,2.60
2018-12-21T18:26:00.508Z,2.53
2018-12-21T18:28:27.229Z,2.00
2018-12-21T18:30:53.909Z,2.70
2018-12-21T18:33:20.731Z,2.40
2018-12-21T18:35:47.506Z,2.07
2018-12-21T18:38:14.291Z,2.63
2018-12-21T18:40:41.085Z,2.23
2018-12-21T18:43:08.021Z,2.27
2018-12-21T18:45:34.963Z,2.77
2018-12-21T18:48:01.741Z,2.47
2018-12-21T18:50:28.549Z,2.73
2018-12-21T18:52:55.295Z,2.63
2018-12-21T18:55:22.099Z,2.17
2018-12-21T18:57:48.816Z,2.20
2018-12-21T19:00:15.547Z,2.10
2018-12-21T19:02:42.329Z,2.13
2018-12-21T19:05:09.052Z,2.30
2018-12-21T19:07:35.764Z,2.50
2018-12-21T19:10:03.942Z,1.87
2018-12-21T19:12:31.024Z,2.50
2018-12-21T19:14:57.829Z,1.40
2018-12-21T19:17:24.695Z,1.40
2018-12-21T19:19:51.455Z,2.33
2018-12-21T19:22:18.125Z,2.13
2018-12-21T19:24:44.865Z,2.33
2018-12-21T19:27:11.576Z,2.43
2018-12-21T19:29:38.235Z,2.07
2018-12-21T19:32:04.991Z,2.60
2018-12-21T19:34:31.866Z,1.93
2018-12-21T19:36:58.609Z,2.13
2018-12-21T19:39:25.319Z,2.10
2018-12-21T19:41:52.000Z,2.83
2018-12-21T19:44:18.919Z,1.87
2018-12-21T19:46:45.575Z,2.43
2018-12-21T19:49:12.288Z,1.97
2018-12-21T19:51:39.245Z,2.50
2018-12-21T19:54:06.057Z,2.20
2018-12-21T19:56:32.945Z,1.80
2018-12-21T19:58:59.690Z,2.23
2018-12-21T20:01:26.406Z,2.20
2018-12-21T20:03:53.190Z,1.90
2018-12-21T20:06:19.976Z,2.13
2018-12-21T20:08:46.707Z,2.47
2018-12-21T20:11:13.525Z,1.70
2018-12-21T20:13:44.822Z,2.50
2018-12-21T20:16:14.233Z,2.10
2018-12-21T20:18:40.938Z,2.30
2018-12-21T20:21:07.695Z,2.33
2018-12-21T20:23:34.586Z,2.40
2018-12-21T20:26:01.287Z,2.07
2018-12-21T20:28:28.106Z,1.70
2018-12-21T20:30:55.133Z,1.53
2018-12-21T20:33:22.234Z,2.07
2018-12-21T20:35:49.037Z,2.07
2018-12-21T20:38:21.362Z,2.30
2018-12-21T20:40:44.655Z,1.70
2018-12-21T20:43:11.333Z,2.23
2018-12-21T20:45:38.449Z,2.37
2018-12-21T20:48:05.199Z,1.67
2018-12-21T20:50:31.885Z,2.43
2018-12-21T20:52:58.542Z,2.40
2018-12-21T20:55:25.705Z,1.83
2018-12-21T20:57:52.504Z,2.27
2018-12-21T21:00:19.430Z,2.27
2018-12-21T21:02:46.144Z,2.30
2018-12-21T21:05:12.896Z,2.23
2018-12-21T21:07:39.688Z,1.80
2018-12-21T21:10:06.444Z,2.40
2018-12-21T21:12:33.152Z,2.17
2018-12-21T21:14:59.904Z,2.83
2018-12-21T21:17:26.635Z,2.63
2018-12-21T21:19:53.390Z,2.10
2018-12-21T21:22:20.255Z,2.03
2018-12-21T21:24:47.061Z,2.10
2018-12-21T21:27:13.895Z,2.20
2018-12-21T21:29:40.730Z,2.63
2018-12-21T21:32:10.401Z,2.13
2018-12-21T21:34:37.716Z,2.17
2018-12-21T21:37:04.419Z,2.60
2018-12-21T21:39:31.230Z,2.10
2018-12-21T21:41:57.941Z,1.97
2018-12-21T21:44:24.793Z,1.60
2018-12-21T21:46:51.602Z,2.10
2018-12-21T21:49:19.419Z,1.80
2018-12-21T21:51:46.340Z,2.30
2018-12-21T21:54:13.078Z,2.07
2018-12-21T21:56:39.778Z,2.43
2018-12-21T21:59:06.500Z,2.40
2018-12-21T22:01:33.266Z,1.80
2018-12-21T22:03:59.970Z,2.10
2018-12-21T22:06:26.646Z,2.40
2018-12-21T22:08:53.406Z,2.13
2018-12-21T22:11:20.524Z,2.30
2018-12-21T22:13:47.308Z,1.93
2018-12-21T22:16:14.111Z,2.60
2018-12-21T22:18:40.809Z,2.00
2018-12-21T22:21:07.499Z,2.27
2018-12-21T22:23:34.287Z,2.03
2018-12-21T22:26:01.131Z,2.13
2018-12-21T22:28:27.862Z,2.03
2018-12-21T22:30:54.592Z,1.83
2018-12-21T22:33:21.524Z,2.37
2018-12-21T22:35:48.292Z,2.27
2018-12-21T22:38:15.038Z,2.07
2018-12-21T22:40:41.906Z,2.23
2018-12-21T22:43:08.606Z,1.83
2018-12-21T22:45:35.410Z,2.20
2018-12-21T22:48:02.136Z,2.13
2018-12-21T22:50:29.088Z,2.27
2018-12-21T22:52:55.854Z,2.10
2018-12-21T22:55:22.685Z,2.30
2018-12-21T22:57:56.405Z,2.13
2018-12-21T23:00:24.676Z,1.80
2018-12-21T23:02:51.455Z,1.63
2018-12-21T23:05:18.365Z,2.60
2018-12-21T23:07:45.236Z,2.00
2018-12-21T23:10:11.924Z,1.93
2018-12-21T23:12:38.725Z,2.00
2018-12-21T23:15:05.525Z,1.77
2018-12-21T23:17:32.375Z,2.43
2018-12-21T23:19:59.155Z,1.97
2018-12-21T23:22:25.934Z,1.80
2018-12-21T23:24:52.722Z,2.07
2018-12-21T23:27:19.480Z,2.43
2018-12-21T23:29:46.196Z,1.47
2018-12-21T23:32:13.004Z,2.37
2018-12-21T23:34:39.694Z,1.93
2018-12-21T23:37:06.424Z,2.37
2018-12-21T23:39:33.192Z,2.10
2018-12-21T23:41:59.968Z,1.83
2018-12-21T23:44:26.664Z,1.80
2018-12-21T23:46:53.391Z,1.93
2018-12-21T23:49:20.129Z,1.20
2018-12-21T23:51:46.893Z,1.77
2018-12-21T23:54:13.612Z,1.80
2018-12-21T23:56:40.277Z,1.70
2018-12-21T23:59:06.981Z,2.63
